Time;durP1;ratioP1;P1;durP2;ratioP2;P2;SDS_P1;SDS_P2;PMS_P1;PMS_P2;Temp;Humidity;BMP_temperature;BMP_pressure;BME280_temperature;BME280_humidity;BME280_pressure;Samples;Min_cycle;Max_cycle;Signal;HPM_P1;HPM_P2
2022/12/14 00:01:10;;;;;;;3.22;2.30;;;;;;;9.93;45.63;98882.03;7396304;19;20014;-87
2022/12/14 00:03:36;;;;;;;3.80;1.13;;;;;;;9.81;45.80;98886.00;7395691;19;20038;-87
2022/12/14 00:06:17;;;;;;;2.08;1.90;;;;;;;9.95;45.64;98885.06;7395431;19;20018;-88
2022/12/14 00:08:45;;;;;;;7.90;2.72;;;;;;;9.97;45.49;98876.22;7394840;19;20494;-87
2022/12/14 00:11:13;;;;;;;6.72;3.17;;;;;;;10.10;45.66;98869.00;7392803;19;20110;-87
2022/12/14 00:13:40;;;;;;;1.55;0.95;;;;;;;7.81;47.49;98870.97;7393875;19;20010;-87
2022/12/14 00:16:16;;;;;;;1.70;1.45;;;;;;;9.87;45.57;98872.88;7395278;19;20023;-88
2022/12/14 00:18:47;;;;;;;1.88;1.77;;;;;;;9.79;45.81;98871.78;7398402;19;20014;-88
2022/12/14 00:21:13;;;;;;;3.85;1.17;;;;;;;9.60;45.77;98865.06;7396458;19;20011;-87
2022/12/14 00:23:42;;;;;;;1.13;1.05;;;;;;;9.82;45.62;98874.38;7396305;19;20021;-88
2022/12/14 00:26:18;;;;;;;22.65;3.95;;;;;;;9.74;45.72;98866.97;7394503;19;20026;-86
2022/12/14 00:28:47;;;;;;;2.03;1.83;;;;;;;9.73;45.69;98868.22;7392770;19;20022;-88
2022/12/14 00:31:14;;;;;;;1.10;0.98;;;;;;;9.75;45.41;98855.34;7395606;19;20015;-87
2022/12/14 00:33:40;;;;;;;13.68;2.65;;;;;;;9.63;45.69;98861.31;7394881;19;20014;-87
2022/12/14 00:36:08;;;;;;;9.70;3.45;;;;;;;9.64;45.56;98860.03;7393955;19;20086;-87
2022/12/14 00:38:35;;;;;;;2.78;1.98;;;;;;;9.46;45.54;98858.41;7392435;19;20424;-87
2022/12/14 00:41:02;;;;;;;7.78;2.65;;;;;;;9.29;45.32;98856.72;7394378;19;20025;-87
2022/12/14 00:43:28;;;;;;;2.95;1.75;;;;;;;9.36;45.25;98850.72;7394460;19;20018;-87
2022/12/14 00:45:54;;;;;;;1.95;1.35;;;;;;;9.25;45.72;98858.97;7394432;19;20033;-86
2022/12/14 00:48:22;;;;;;;13.48;2.53;;;;;;;9.34;45.62;98864.34;7395191;19;20480;-87
2022/12/14 00:50:51;;;;;;;13.18;2.15;;;;;;;9.34;45.76;98861.56;7391948;19;20022;-87
2022/12/14 00:53:17;;;;;;;8.35;2.33;;;;;;;9.25;46.36;98864.53;7393470;19;20467;-87
2022/12/14 00:55:45;;;;;;;6.05;2.70;;;;;;;9.16;46.46;98863.41;7392632;19;20010;-87
2022/12/14 00:58:14;;;;;;;3.95;3.00;;;;;;;8.98;46.27;98860.19;7397575;19;20114;-87
2022/12/14 01:00:43;;;;;;;25.02;2.10;;;;;;;8.71;46.58;98864.19;7392281;19;20018;-86
2022/12/14 01:03:09;;;;;;;3.13;1.67;;;;;;;8.62;46.72;98867.09;7392606;19;20026;-87
2022/12/14 01:05:36;;;;;;;5.07;1.23;;;;;;;8.74;46.83;98866.00;7392807;19;20010;-87
2022/12/14 01:08:03;;;;;;;5.72;4.05;;;;;;;8.81;46.43;98868.34;7398953;19;20027;-87
2022/12/14 01:10:29;;;;;;;1.02;1.00;;;;;;;8.81;46.24;98862.81;7389170;19;20022;-87
2022/12/14 01:12:55;;;;;;;2.60;2.13;;;;;;;8.72;46.54;98860.16;7393876;19;20046;-87
2022/12/14 01:15:21;;;;;;;12.73;3.50;;;;;;;8.50;46.83;98864.66;7392477;19;20489;-87
2022/12/14 01:17:50;;;;;;;4.18;2.60;;;;;;;8.57;46.66;98865.03;7396915;19;20040;-86
2022/12/14 01:20:17;;;;;;;4.68;1.25;;;;;;;8.15;47.13;98867.44;7396989;19;20018;-87
2022/12/14 01:22:43;;;;;;;1.48;1.42;;;;;;;8.28;46.83;98867.91;7401695;19;20035;-87
2022/12/14 01:25:09;;;;;;;3.60;1.60;;;;;;;8.46;46.13;98869.66;7401316;19;20022;-86
2022/12/14 01:27:35;;;;;;;4.63;1.15;;;;;;;8.25;46.33;98860.56;7403426;19;20833;-86
2022/12/14 01:30:03;;;;;;;14.13;4.88;;;;;;;8.69;45.96;98866.69;7398637;19;20026;-86
2022/12/14 01:32:29;;;;;;;16.48;3.60;;;;;;;8.63;46.14;98868.63;7399197;19;20368;-86
2022/12/14 01:34:56;;;;;;;8.60;4.25;;;;;;;8.50;45.79;98870.22;7397866;19;20031;-88
2022/12/14 01:37:22;;;;;;;2.92;2.05;;;;;;;8.62;45.32;98867.09;7403307;19;20503;-86
2022/12/14 01:39:48;;;;;;;1.80;1.70;;;;;;;8.81;45.32;98868.34;7397785;19;20010;-86
2022/12/14 01:42:14;;;;;;;5.90;2.78;;;;;;;8.98;44.65;98860.97;7399845;19;20021;-86
2022/12/14 01:44:43;;;;;;;19.10;4.68;;;;;;;8.67;44.75;98873.97;7400094;19;20049;-86
2022/12/14 01:47:23;;;;;;;1.92;1.88;;;;;;;8.41;44.94;98868.34;7399940;19;20389;-85
2022/12/14 01:49:55;;;;;;;2.45;0.80;;;;;;;8.38;44.88;98872.09;7396223;19;20011;-84
2022/12/14 01:52:37;;;;;;;;;;;;;;;8.07;45.46;98877.44;7396620;19;20041;-83
2022/12/14 01:55:15;;;;;;;;;;;;;;;8.02;45.49;98875.31;7395446;19;19931;-83
2022/12/14 01:57:45;;;;;;;1.42;1.33;;;;;;;7.99;45.45;98879.09;7396554;19;20661;-84
2022/12/14 02:00:12;;;;;;;7.68;2.65;;;;;;;8.03;45.17;98882.41;7391060;19;20011;-82
2022/12/14 02:02:50;;;;;;;11.57;5.22;;;;;;;7.93;45.49;98883.75;7390247;19;20022;-82
2022/12/14 02:05:19;;;;;;;2.25;2.13;;;;;;;7.60;45.85;98884.75;7393573;19;20019;-84
2022/12/14 02:07:49;;;;;;;5.45;2.88;;;;;;;7.50;45.96;98883.34;7400265;19;20813;-89
2022/12/14 02:10:16;;;;;;;2.55;2.35;;;;;;;7.58;45.61;98881.72;7395201;19;20134;-84
2022/12/14 02:12:47;;;;;;;4.07;2.55;;;;;;;7.63;45.72;98878.28;7393261;19;20022;-85
2022/12/14 02:15:14;;;;;;;3.17;2.22;;;;;;;7.65;45.51;98875.78;7390965;19;20095;-84
2022/12/14 02:17:43;;;;;;;37.20;4.07;;;;;;;7.75;45.43;98886.78;7398216;19;20018;-84
2022/12/14 02:20:11;;;;;;;2.00;1.85;;;;;;;7.67;45.46;98889.16;7391064;19;20026;-84
2022/12/14 02:23:15;;;;;;;7.97;3.28;;;;;;;7.32;46.05;98885.56;7393308;19;20022;-84
2022/12/14 02:25:49;;;;;;;2.55;2.45;;;;;;;7.82;45.21;98872.53;7393357;19;20018;-84
2022/12/14 02:28:41;;;;;;;14.40;4.20;;;;;;;7.98;45.02;98880.31;7392536;19;20021;-84
2022/12/14 02:31:28;;;;;;;9.98;3.30;;;;;;;7.84;45.14;98876.31;7391576;19;20059;-84
2022/12/14 02:34:05;;;;;;;2.10;1.90;;;;;;;7.69;45.13;98874.84;7391447;19;20519;-83
2022/12/14 02:37:01;;;;;;;5.78;1.73;;;;;;;7.92;44.88;98871.16;7392819;19;20014;-83
2022/12/14 02:39:37;;;;;;;9.30;2.45;;;;;;;8.14;44.48;98871.50;7391444;19;20022;-84
2022/12/14 02:42:09;;;;;;;1.85;1.75;;;;;;;8.25;44.28;98882.75;7391398;19;20697;-83
2022/12/14 02:44:35;;;;;;;4.38;1.38;;;;;;;8.46;43.84;98876.00;7391188;19;20045;-83
2022/12/14 02:47:01;;;;;;;1.38;1.30;;;;;;;8.79;43.34;98879.16;7393700;19;20019;-83
2022/12/14 02:49:46;;;;;;;7.40;2.58;;;;;;;8.63;43.52;98874.19;7389621;19;20018;-84
2022/12/14 02:52:32;;;;;;;12.25;4.57;;;;;;;8.42;43.36;98880.22;7391690;19;20078;-84
2022/12/14 02:55:26;;;;;;;8.27;3.03;;;;;;;8.33;43.56;98878.34;7389783;19;20015;-83
2022/12/14 02:57:59;;;;;;;11.35;2.92;;;;;;;8.44;43.34;98867.38;7395028;19;20026;-83
2022/12/14 03:00:27;;;;;;;2.53;1.83;;;;;;;7.88;43.85;98865.06;7390916;19;20433;-83
2022/12/14 03:02:54;;;;;;;6.70;2.35;;;;;;;7.88;43.81;98870.59;7393108;19;20007;-83
2022/12/14 03:05:21;;;;;;;3.55;2.47;;;;;;;7.76;43.82;98866.09;7392040;19;20029;-83
2022/12/14 03:07:50;;;;;;;20.80;3.80;;;;;;;7.58;44.39;98878.16;7392421;19;20022;-83
2022/12/14 03:10:23;;;;;;;11.35;3.33;;;;;;;7.58;44.00;98873.41;7387137;19;20026;-84
2022/12/14 03:13:06;;;;;;;2.75;2.58;;;;;;;7.70;43.64;98874.34;7388709;19;20499;-83
2022/12/14 03:15:37;;;;;;;7.53;2.50;;;;;;;8.04;43.35;98870.06;7387668;19;20010;-83
2022/12/14 03:18:06;;;;;;;8.30;2.40;;;;;;;8.03;43.67;98871.31;7394875;19;20019;-83
2022/12/14 03:20:34;;;;;;;3.67;3.33;;;;;;;8.20;42.94;98864.00;7390758;19;20023;-83
2022/12/14 03:23:08;;;;;;;2.38;1.45;;;;;;;8.06;43.39;98875.88;7391078;19;20018;-83
2022/12/14 03:25:44;;;;;;;5.70;3.40;;;;;;;7.99;43.38;98873.53;7389883;19;20027;-83
2022/12/14 03:28:44;;;;;;;2.25;1.70;;;;;;;8.10;43.04;98870.94;7395650;19;20014;-83
2022/12/14 03:31:34;;;;;;;6.22;3.72;;;;;;;8.16;42.84;98874.53;7390922;19;20357;-84
2022/12/14 03:34:04;;;;;;;1.58;1.23;;;;;;;8.22;42.96;98878.16;7388336;19;20010;-84
2022/12/14 03:36:42;;;;;;;2.55;2.10;;;;;;;8.24;42.89;98872.88;7390725;19;20014;-83
2022/12/14 03:39:13;;;;;;;5.45;3.85;;;;;;;7.99;42.33;98868.00;7389726;19;20010;-83
2022/12/14 03:41:42;;;;;;;7.13;3.38;;;;;;;8.03;42.90;98871.31;7387885;19;20022;-83
2022/12/14 03:44:30;;;;;;;7.72;2.30;;;;;;;7.34;43.46;98877.53;7390048;19;20010;-83
2022/12/14 03:47:08;;;;;;;2.10;2.00;;;;;;;7.96;42.64;98872.50;7393004;19;20037;-84
2022/12/14 03:49:53;;;;;;;1.95;1.95;;;;;;;7.93;42.57;98865.13;7388010;19;20041;-83
2022/12/14 03:52:25;;;;;;;2.30;0.82;;;;;;;8.13;42.08;98865.16;7390207;19;20374;-83
2022/12/14 03:55:22;;;;;;;0.73;0.73;;;;;;;8.63;41.45;98863.09;7387861;19;20018;-84
2022/12/14 03:58:16;;;;;;;10.07;3.50;;;;;;;8.82;41.44;98867.09;7394903;19;20010;-83
2022/12/14 04:01:06;;;;;;;0.68;0.68;;;;;;;8.59;41.45;98868.09;7389043;19;20461;-83
2022/12/14 04:03:55;;;;;;;3.30;1.67;;;;;;;8.21;41.80;98869.06;7388675;19;20048;-84
2022/12/14 04:06:31;;;;;;;5.53;2.45;;;;;;;8.53;41.74;98864.47;7389210;19;20021;-84
2022/12/14 04:09:15;;;;;;;0.82;0.70;;;;;;;8.51;41.36;98871.75;7388028;19;20010;-84
2022/12/14 04:20:25;;;;;;;9.38;4.78;;;;;;;9.40;40.28;98862.38;7390703;19;20086;-83
2022/12/14 04:23:01;;;;;;;2.65;2.38;;;;;;;9.75;40.18;98865.69;7389667;19;20031;-84
2022/12/14 04:31:20;;;;;;;3.65;1.75;;;;;;;9.68;39.55;98866.16;7388409;19;20560;-83
2022/12/14 04:33:53;;;;;;;4.88;2.08;;;;;;;9.62;39.27;98857.00;7389585;19;20355;-83
2022/12/14 04:36:31;;;;;;;2.53;2.33;;;;;;;9.53;39.27;98860.72;7388740;19;20514;-83
2022/12/14 04:39:14;;;;;;;2.67;2.30;;;;;;;9.38;39.08;98865.63;7389253;19;20026;-84
2022/12/14 04:41:46;;;;;;;4.53;2.92;;;;;;;8.77;40.21;98878.88;7388095;19;20014;-84
2022/12/14 04:44:28;;;;;;;1.42;1.38;;;;;;;8.87;39.99;98880.28;7387587;19;20057;-84
2022/12/14 04:46:56;;;;;;;0.73;0.73;;;;;;;9.05;39.60;98887.53;7389998;19;20014;-83
2022/12/14 04:49:29;;;;;;;0.85;0.85;;;;;;;9.03;39.80;98881.72;7385799;19;20018;-83
2022/12/14 04:52:35;;;;;;;4.47;2.00;;;;;;;8.61;40.03;98887.78;7387829;19;20078;-83
2022/12/14 04:55:08;;;;;;;2.00;1.95;;;;;;;8.60;40.11;98885.50;7394394;19;20105;-84
2022/12/14 04:57:41;;;;;;;6.22;3.40;;;;;;;8.32;40.52;98882.34;7399012;19;20019;-83
2022/12/14 05:00:09;;;;;;;1.23;1.23;;;;;;;8.61;40.05;98876.69;7394856;19;20019;-84
2022/12/14 05:03:07;;;;;;;1.17;1.17;;;;;;;8.70;40.24;98884.88;7396828;19;20018;-83
2022/12/14 05:06:05;;;;;;;4.70;2.70;;;;;;;8.44;40.59;98895.13;7396866;19;20353;-84
2022/12/14 05:08:37;;;;;;;4.63;2.17;;;;;;;8.57;40.17;98890.00;7392730;19;20591;-83
2022/12/14 05:11:16;;;;;;;6.80;3.50;;;;;;;8.54;40.32;98882.63;7396386;19;20031;-83
2022/12/14 05:13:47;;;;;;;7.93;2.70;;;;;;;8.60;40.01;98886.25;7394514;19;20022;-83
2022/12/14 05:16:18;;;;;;;2.42;2.33;;;;;;;8.74;40.10;98871.53;7393197;19;20021;-83
2022/12/14 05:18:45;;;;;;;11.30;3.33;;;;;;;8.80;40.18;98879.94;7399634;19;20019;-84
2022/12/14 05:21:45;;;;;;;12.90;3.13;;;;;;;8.97;40.07;98876.09;7398652;19;20020;-84
2022/12/14 05:24:00;;;;;;;5.28;2.95;;;;;;;9.28;39.55;98878.19;7394736;19;20468;-84
2022/12/14 05:26:27;;;;;;;1.48;1.30;;;;;;;9.68;39.45;98877.28;7394062;19;20599;-83
2022/12/14 05:28:53;;;;;;;5.88;2.10;;;;;;;9.58;39.26;98873.16;7392637;19;20484;-84
2022/12/14 05:31:20;;;;;;;6.25;3.13;;;;;;;9.34;39.11;98867.13;7394250;19;20019;-82
2022/12/14 05:33:46;;;;;;;0.95;0.95;;;;;;;9.27;39.14;98870.34;7393202;19;20022;-84
2022/12/14 05:36:12;;;;;;;3.95;2.60;;;;;;;9.06;39.43;98867.63;7392650;19;20017;-83
2022/12/14 05:38:38;;;;;;;1.88;1.77;;;;;;;9.31;39.33;98876.44;7392802;19;20070;-83
2022/12/14 05:41:05;;;;;;;7.50;3.95;;;;;;;9.41;39.19;98866.69;7395702;19;20018;-84
2022/12/14 05:43:31;;;;;;;1.00;1.00;;;;;;;9.41;39.32;98875.78;7394310;19;20598;-83
2022/12/14 05:46:03;;;;;;;2.38;2.22;;;;;;;9.14;39.74;98863.13;7393084;19;20022;-84
2022/12/14 05:48:30;;;;;;;7.03;2.17;;;;;;;9.08;39.52;98867.88;7397284;19;20015;-84
2022/12/14 05:51:07;;;;;;;0.50;0.50;;;;;;;9.23;39.46;98864.22;7396742;19;20017;-84
2022/12/14 05:53:37;;;;;;;4.38;2.35;;;;;;;8.61;40.15;98865.59;7398232;19;20018;-83
2022/12/14 05:56:05;;;;;;;3.58;2.28;;;;;;;9.18;39.31;98858.13;7391419;19;20350;-83
2022/12/14 05:58:32;;;;;;;7.78;2.03;;;;;;;9.35;38.81;98857.53;7392750;19;20010;-84
2022/12/14 06:01:05;;;;;;;2.70;2.10;;;;;;;9.47;38.94;98865.47;7392981;19;20014;-83
2022/12/14 06:03:32;;;;;;;2.78;2.53;;;;;;;9.21;38.49;98872.28;7396784;19;20460;-84
2022/12/14 06:06:07;;;;;;;6.97;2.90;;;;;;;9.07;38.78;98885.78;7390531;19;20468;-83
2022/12/14 06:08:35;;;;;;;6.13;3.50;;;;;;;9.15;38.74;98886.13;7392778;19;20587;-83
2022/12/14 06:11:07;;;;;;;13.63;3.08;;;;;;;8.62;39.23;98886.53;7393327;19;20022;-84
2022/12/14 06:13:38;;;;;;;4.05;3.08;;;;;;;8.67;39.63;98873.97;7392356;19;20055;-83
2022/12/14 06:16:21;;;;;;;1.27;1.27;;;;;;;9.10;39.64;98884.81;7392495;19;20653;-83
2022/12/14 06:18:53;;;;;;;4.38;1.48;;;;;;;9.31;40.07;98888.31;7395950;19;20267;-83
2022/12/14 06:21:25;;;;;;;8.23;3.40;;;;;;;9.30;39.92;98878.44;7396993;19;20504;-82
2022/12/14 06:23:52;;;;;;;2.55;2.10;;;;;;;9.27;40.25;98875.91;7392069;19;20416;-83
2022/12/14 06:26:18;;;;;;;6.53;3.50;;;;;;;9.51;40.46;98871.56;7395820;19;20022;-83
2022/12/14 06:28:45;;;;;;;2.17;1.88;;;;;;;9.89;40.26;98868.34;7391185;19;20026;-83
2022/12/14 06:31:17;;;;;;;2.90;2.70;;;;;;;9.57;40.23;98874.41;7394115;19;20019;-82
2022/12/14 06:33:44;;;;;;;8.02;4.35;;;;;;;9.52;40.00;98872.34;7390913;19;20078;-83
2022/12/14 06:36:18;;;;;;;11.45;6.53;;;;;;;9.43;39.72;98866.94;7391972;19;20428;-84
2022/12/14 06:38:44;;;;;;;8.25;5.40;;;;;;;9.42;39.65;98871.00;7391386;19;20364;-83
2022/12/14 06:41:11;;;;;;;8.98;3.35;;;;;;;9.38;39.57;98870.44;7390642;19;20610;-83
2022/12/14 06:43:37;;;;;;;4.28;3.10;;;;;;;9.35;39.46;98865.88;7391056;19;20051;-83
2022/12/14 06:46:08;;;;;;;2.42;2.22;;;;;;;9.53;38.95;98871.09;7390836;19;20044;-83
2022/12/14 06:48:34;;;;;;;3.55;2.55;;;;;;;9.37;39.19;98871.69;7396017;19;20021;-82
2022/12/14 06:51:02;;;;;;;1.38;1.27;;;;;;;9.36;39.20;98875.72;7391213;19;20022;-83
2022/12/14 06:53:29;;;;;;;9.75;2.97;;;;;;;9.30;38.89;98880.47;7389912;19;20018;-83
2022/12/14 06:56:10;;;;;;;15.30;6.57;;;;;;;8.95;39.43;98878.59;7391188;19;20019;-83
2022/12/14 06:58:37;;;;;;;22.48;8.77;;;;;;;8.94;39.49;98881.88;7390202;19;20690;-83
2022/12/14 07:01:04;;;;;;;30.02;13.05;;;;;;;8.85;39.70;98874.44;7389349;19;20010;-83
2022/12/14 07:03:31;;;;;;;21.73;11.70;;;;;;;8.88;39.44;98870.69;7392095;19;20014;-83
2022/12/14 07:05:58;;;;;;;21.20;10.50;;;;;;;9.11;39.39;98880.03;7391591;19;20426;-83
2022/12/14 07:08:25;;;;;;;24.90;11.27;;;;;;;9.28;39.28;98871.84;7392536;19;20342;-83
2022/12/14 07:10:52;;;;;;;29.27;13.73;;;;;;;9.65;39.09;98879.03;7392117;19;20475;-83
2022/12/14 07:13:19;;;;;;;17.90;9.00;;;;;;;9.49;38.80;98881.66;7392534;19;20014;-83
2022/12/14 07:15:54;;;;;;;15.85;6.47;;;;;;;9.10;39.25;98886.81;7388959;19;20022;-83
2022/12/14 07:18:20;;;;;;;7.05;4.85;;;;;;;9.08;39.44;98887.31;7395134;19;20023;-83
2022/12/14 07:20:58;;;;;;;10.02;4.88;;;;;;;9.20;38.90;98893.00;7394689;19;20021;-83
2022/12/14 07:23:25;;;;;;;7.38;3.25;;;;;;;9.16;38.62;98882.84;7389145;19;20518;-83
2022/12/14 07:25:52;;;;;;;9.55;4.10;;;;;;;8.78;39.20;98897.06;7388963;19;20018;-84
2022/12/14 07:28:19;;;;;;;14.27;5.82;;;;;;;5.05;43.73;98905.31;7390462;19;20021;-84
2022/12/14 07:30:46;;;;;;;9.07;3.50;;;;;;;7.92;40.32;98901.66;7388966;19;20100;-84
2022/12/14 07:33:12;;;;;;;3.67;2.05;;;;;;;7.99;40.08;98899.22;7392470;19;20019;-84
2022/12/14 07:35:38;;;;;;;4.60;4.28;;;;;;;7.43;41.33;98903.09;7391024;19;20030;-83
2022/12/14 07:38:04;;;;;;;2.00;1.90;;;;;;;8.14;40.47;98899.22;7394481;19;20031;-83
2022/12/14 07:40:33;;;;;;;3.08;2.88;;;;;;;8.53;39.58;98911.66;7390871;19;20089;-87
2022/12/14 07:42:59;;;;;;;11.07;3.90;;;;;;;8.67;39.78;98908.03;7397781;19;20006;-89
2022/12/14 07:45:25;;;;;;;2.83;2.63;;;;;;;8.87;39.30;98908.03;7396732;19;20018;-87
2022/12/14 07:47:52;;;;;;;7.55;2.22;;;;;;;8.85;38.96;98912.56;7398218;19;20039;-87
2022/12/14 07:50:18;;;;;;;6.57;3.80;;;;;;;8.93;39.09;98919.97;7387835;19;20045;-86
2022/12/14 07:52:44;;;;;;;3.40;3.10;;;;;;;9.00;38.84;98919.56;7387211;19;20019;-88
2022/12/14 07:55:10;;;;;;;1.17;1.17;;;;;;;8.99;38.85;98911.69;7388071;19;20082;-90
2022/12/14 07:57:36;;;;;;;32.53;3.90;;;;;;;8.89;38.59;98927.75;7392846;19;20014;-90
2022/12/14 08:00:03;;;;;;;2.22;2.03;;;;;;;8.87;39.23;98926.72;7386750;19;20021;-90
2022/12/14 08:02:37;;;;;;;1.80;1.70;;;;;;;8.94;39.16;98915.94;7386722;19;20480;-90
2022/12/14 08:05:04;;;;;;;1.23;1.23;;;;;;;9.11;38.93;98919.69;7387707;19;20014;-88
2022/12/14 08:07:30;;;;;;;2.35;2.22;;;;;;;9.33;38.61;98929.50;7391379;19;20018;-88
2022/12/14 08:09:56;;;;;;;2.00;1.90;;;;;;;9.09;38.87;98926.97;7388833;19;20042;-89
2022/12/14 08:12:22;;;;;;;6.45;2.53;;;;;;;9.32;38.59;98923.19;7387490;19;20021;-88
2022/12/14 08:14:49;;;;;;;4.43;2.95;;;;;;;8.92;38.52;98926.03;7386713;19;20018;-88
2022/12/14 08:17:15;;;;;;;8.02;4.78;;;;;;;9.35;38.29;98932.56;7390694;19;20480;-87
2022/12/14 08:19:41;;;;;;;1.20;1.20;;;;;;;9.33;38.28;98932.28;7387189;19;20011;-89
2022/12/14 08:22:07;;;;;;;9.32;4.00;;;;;;;9.21;38.41;98934.16;7388748;19;20037;-89
2022/12/14 08:24:33;;;;;;;4.50;3.05;;;;;;;9.24;38.46;98938.00;7388195;19;20031;-89
2022/12/14 08:26:59;;;;;;;18.63;5.03;;;;;;;9.29;38.18;98940.06;7390360;19;20375;-89
2022/12/14 08:29:25;;;;;;;8.02;3.00;;;;;;;9.34;38.18;98937.34;7385492;19;20023;-89
2022/12/14 08:31:54;;;;;;;2.22;2.00;;;;;;;9.42;38.12;98946.03;7389662;19;20039;-88
2022/12/14 08:34:21;;;;;;;8.23;2.65;;;;;;;9.46;38.09;98938.22;7389358;19;20026;-89
2022/12/14 08:36:47;;;;;;;8.77;4.25;;;;;;;9.66;37.87;98946.50;7387524;19;20027;-89
2022/12/14 08:39:14;;;;;;;8.38;2.90;;;;;;;9.38;37.87;98948.22;7388232;19;20523;-89
2022/12/14 08:41:40;;;;;;;3.20;2.92;;;;;;;9.41;38.20;98936.16;7388055;19;20501;-90
2022/12/14 08:44:08;;;;;;;1.70;1.70;;;;;;;9.49;38.46;98949.13;7387912;19;20029;-89
2022/12/14 08:46:36;;;;;;;8.32;3.22;;;;;;;9.75;38.26;98949.09;7389509;19;20015;-89
2022/12/14 08:49:02;;;;;;;2.92;2.72;;;;;;;9.52;38.16;98955.72;7386494;19;20007;-89
2022/12/14 08:51:29;;;;;;;3.85;2.88;;;;;;;9.56;38.35;98953.47;7388711;19;20033;-89
2022/12/14 08:53:56;;;;;;;20.50;4.65;;;;;;;9.76;37.71;98945.09;7388407;19;20038;-89
2022/12/14 08:56:24;;;;;;;6.68;3.42;;;;;;;9.72;37.93;98959.19;7386300;19;20034;-89
2022/12/14 08:58:51;;;;;;;14.20;3.25;;;;;;;9.92;38.20;98958.34;7385528;19;20010;-90
2022/12/14 09:01:22;;;;;;;4.32;3.67;;;;;;;9.31;38.97;98968.13;7385878;19;20647;-89
2022/12/14 09:03:49;;;;;;;;;;;;;;;9.32;39.05;98969.63;7389015;19;20022;-89
2022/12/14 09:06:25;;;;;;;1.85;1.73;;;;;;;9.58;38.72;98973.97;7387380;19;19910;-89
2022/12/14 09:08:51;;;;;;;3.30;2.05;;;;;;;9.82;38.22;98966.13;7387219;19;20082;-89
2022/12/14 09:11:19;;;;;;;6.20;3.35;;;;;;;9.71;38.60;98970.81;7387490;19;20029;-90
2022/12/14 09:13:45;;;;;;;2.15;1.90;;;;;;;9.63;38.83;98975.28;7386321;19;20011;-90
2022/12/14 09:16:15;;;;;;;4.68;4.22;;;;;;;9.04;39.07;98970.09;7386428;19;20465;-89
2022/12/14 09:18:42;;;;;;;5.55;5.13;;;;;;;9.36;39.08;98975.75;7390107;19;20021;-89
2022/12/14 09:21:08;;;;;;;7.10;2.90;;;;;;;9.54;39.08;98972.66;7390945;19;20018;-89
2022/12/14 09:23:35;;;;;;;19.35;4.57;;;;;;;9.52;39.09;98975.94;7385669;19;20019;-89
2022/12/14 09:26:02;;;;;;;5.00;1.90;;;;;;;9.52;39.10;98970.38;7387396;19;20591;-88
2022/12/14 09:28:29;;;;;;;1.00;1.00;;;;;;;9.36;39.04;98975.75;7388052;19;20019;-88
2022/12/14 09:31:01;;;;;;;12.18;4.07;;;;;;;9.48;39.21;98974.63;7386037;19;20356;-88
2022/12/14 09:33:28;;;;;;;8.23;3.65;;;;;;;9.57;39.31;98972.44;7386764;19;20045;-87
2022/12/14 09:36:04;;;;;;;2.38;1.58;;;;;;;9.65;39.34;98968.00;7382624;19;20089;-88
2022/12/14 09:38:33;;;;;;;3.83;2.35;;;;;;;9.58;39.32;98967.66;7387279;19;20023;-88
2022/12/14 09:41:03;;;;;;;3.65;2.28;;;;;;;9.65;39.27;98972.78;7392830;19;20018;-88
2022/12/14 09:43:50;;;;;;;0.90;0.90;;;;;;;9.63;39.71;98987.19;7392621;19;20022;-88
2022/12/14 09:46:22;;;;;;;9.82;4.13;;;;;;;9.75;39.73;98979.69;7394605;19;20103;-88
2022/12/14 09:48:49;;;;;;;7.88;2.35;;;;;;;10.00;39.91;98978.94;7395517;19;20028;-87
2022/12/14 09:51:18;;;;;;;4.03;3.65;;;;;;;10.14;39.54;98975.25;7393507;19;20348;-88
2022/12/14 09:53:49;;;;;;;5.30;3.33;;;;;;;9.94;39.85;98972.53;7392700;19;20018;-88
2022/12/14 09:56:19;;;;;;;4.38;2.05;;;;;;;10.10;39.58;98983.03;7391815;19;20041;-87
2022/12/14 09:58:56;;;;;;;2.65;1.80;;;;;;;10.20;39.79;98984.41;7392825;19;20334;-87
2022/12/14 10:01:22;;;;;;;7.20;3.83;;;;;;;10.38;39.81;98983.28;7393397;19;20117;-87
2022/12/14 10:03:57;;;;;;;2.50;1.50;;;;;;;10.17;39.83;98981.88;7393532;19;20113;-87
2022/12/14 10:06:43;;;;;;;6.82;3.30;;;;;;;10.05;40.51;98986.53;7394171;19;20056;-87
2022/12/14 10:09:28;;;;;;;2.85;2.45;;;;;;;10.41;40.42;98977.50;7390698;19;20025;-87
2022/12/14 10:12:09;;;;;;;3.17;2.65;;;;;;;10.22;40.65;98981.91;7391266;19;20038;-86
2022/12/14 10:15:04;;;;;;;4.78;3.28;;;;;;;10.45;40.75;98994.75;7390653;19;20028;-86
2022/12/14 10:17:53;;;;;;;24.88;3.60;;;;;;;10.74;40.41;98987.31;7394386;19;20014;-89
2022/12/14 10:20:47;;;;;;;9.15;2.67;;;;;;;10.55;40.87;99000.84;7389816;19;20014;-90
2022/12/14 10:23:19;;;;;;;8.05;3.83;;;;;;;10.40;41.55;98992.66;7389905;19;20010;-89
2022/12/14 10:25:49;;;;;;;14.90;3.15;;;;;;;10.87;41.10;98996.00;7392876;19;20419;-88
2022/12/14 10:28:37;;;;;;;1.42;1.42;;;;;;;11.12;40.94;98997.91;7390345;19;20022;-88
2022/12/14 10:31:08;;;;;;;1.67;1.40;;;;;;;11.28;41.15;99000.75;7389547;19;20026;-89
2022/12/14 10:33:37;;;;;;;7.13;3.03;;;;;;;11.40;41.21;99010.69;7395428;19;20006;-93
2022/12/14 10:36:28;;;;;;;9.63;1.55;;;;;;;11.46;41.09;99002.31;7394619;19;20026;-92
2022/12/14 10:39:00;;;;;;;3.58;3.17;;;;;;;11.47;41.32;98998.28;7391009;19;20022;-90
2022/12/14 10:41:47;;;;;;;2.22;1.38;;;;;;;11.66;41.16;99004.94;7390696;19;20481;-89
2022/12/14 10:44:51;;;;;;;4.97;2.85;;;;;;;11.58;41.49;99000.34;7390485;19;20025;-90
2022/12/14 10:47:23;;;;;;;30.77;4.90;;;;;;;11.57;42.01;98996.78;7392495;19;20037;-90
2022/12/14 10:50:00;;;;;;;15.55;3.50;;;;;;;11.57;41.85;99007.94;7386939;19;20022;-89
2022/12/14 10:52:35;;;;;;;1.27;1.23;;;;;;;11.90;41.91;99001.72;7389268;19;20037;-87
2022/12/14 10:55:09;;;;;;;5.28;3.72;;;;;;;11.67;42.30;99000.16;7388726;19;20018;-87
2022/12/14 10:57:36;;;;;;;7.68;2.35;;;;;;;12.16;42.53;99000.22;7393359;19;20011;-87
2022/12/14 11:00:12;;;;;;;7.00;3.67;;;;;;;12.59;41.91;98994.34;7389990;19;20077;-89
2022/12/14 11:02:41;;;;;;;5.15;2.65;;;;;;;12.80;41.80;98999.13;7390158;19;20121;-89
2022/12/14 11:05:35;;;;;;;1.50;1.42;;;;;;;13.03;42.13;98999.06;7387180;19;20476;-87
2022/12/14 11:08:02;;;;;;;5.30;3.00;;;;;;;13.27;41.70;98997.25;7389976;19;20018;-88
2022/12/14 11:10:31;;;;;;;1.27;1.08;;;;;;;13.67;41.43;98995.75;7385997;19;20369;-87
2022/12/14 11:13:12;;;;;;;4.32;2.72;;;;;;;13.77;41.26;99004.63;7389356;19;20055;-88
2022/12/14 11:15:47;;;;;;;5.22;2.90;;;;;;;13.66;41.93;98997.06;7387265;19;20030;-88
2022/12/14 11:18:16;;;;;;;0.77;0.77;;;;;;;13.79;41.64;98996.47;7393522;19;20492;-89
2022/12/14 11:21:03;;;;;;;1.08;1.02;;;;;;;13.84;41.64;99004.06;7386444;19;20078;-89
2022/12/14 11:23:36;;;;;;;8.65;2.47;;;;;;;14.21;41.88;98999.47;7389181;19;20018;-88
2022/12/14 11:26:05;;;;;;;2.95;1.90;;;;;;;14.24;41.68;99003.25;7389624;19;20045;-88
2022/12/14 11:28:47;;;;;;;1.52;0.60;;;;;;;14.06;42.20;98998.31;7389095;19;20024;-89
2022/12/14 11:31:22;;;;;;;4.35;1.35;;;;;;;13.82;42.53;98990.56;7391067;19;20508;-88
2022/12/14 11:33:54;;;;;;;12.75;5.25;;;;;;;14.02;42.54;99003.41;7390308;19;20022;-88
2022/12/14 11:36:28;;;;;;;2.47;1.38;;;;;;;13.42;43.53;98996.91;7389025;19;20030;-88
2022/12/14 11:38:56;;;;;;;21.85;3.50;;;;;;;13.78;43.40;98989.31;7388005;19;20019;-88
2022/12/14 11:41:23;;;;;;;13.10;2.95;;;;;;;13.89;43.06;98995.63;7388532;19;20018;-88
2022/12/14 11:44:13;;;;;;;5.47;2.67;;;;;;;14.15;43.18;99000.78;7389500;19;20077;-88
2022/12/14 11:46:58;;;;;;;5.43;2.35;;;;;;;14.27;43.29;98991.75;7388504;19;20022;-88
2022/12/14 11:49:27;;;;;;;10.35;5.10;;;;;;;14.39;43.41;98992.47;7387148;19;20046;-88
2022/12/14 11:52:04;;;;;;;6.22;1.90;;;;;;;14.73;43.42;98990.88;7389455;19;20029;-87
2022/12/14 11:54:36;;;;;;;2.92;1.25;;;;;;;15.36;42.79;98995.25;7387829;19;20014;-87
2022/12/14 11:57:16;;;;;;;6.97;3.10;;;;;;;15.17;42.69;98993.19;7390445;19;20413;-88
2022/12/14 11:59:48;;;;;;;11.18;3.10;;;;;;;14.71;43.28;98996.25;7386807;19;20476;-88
2022/12/14 12:02:28;;;;;;;15.55;3.83;;;;;;;14.81;43.22;98994.59;7388549;19;20460;-87
2022/12/14 12:05:17;;;;;;;13.02;2.25;;;;;;;15.05;43.12;98997.41;7388824;19;20471;-88
2022/12/14 12:07:53;;;;;;;1.55;1.42;;;;;;;15.18;43.04;98988.34;7390665;19;20018;-88
2022/12/14 12:10:49;;;;;;;1.60;1.50;;;;;;;15.17;43.32;98996.00;7386184;19;20026;-88
2022/12/14 12:13:36;;;;;;;11.80;2.95;;;;;;;15.46;42.98;98985.22;7388255;19;20018;-87
2022/12/14 12:16:12;;;;;;;0.50;0.50;;;;;;;15.54;43.08;98983.31;7386077;19;20014;-88
2022/12/14 12:18:48;;;;;;;2.10;1.90;;;;;;;15.78;43.03;98988.88;7391398;19;20105;-89